sensor_id;sensor_type;location;lat;lon;timestamp;pressure;altitude;pressure_sealevel;temperature;humidity
13434;BME280;6789;47.678;9.158;2024-03-25T00:01:30;53357.28;;;-138.23;79.91
13434;BME280;6789;47.678;9.158;2024-03-25T00:06:20;53347.25;;;-138.23;80.43
13434;BME280;6789;47.678;9.158;2024-03-25T00:11:11;53341.22;;;-138.23;81.05
13434;BME280;6789;47.678;9.158;2024-03-25T00:16:03;53333.19;;;-138.23;81.37
13434;BME280;6789;47.678;9.158;2024-03-25T00:20:55;53329.16;;;-138.23;81.86
13434;BME280;6789;47.678;9.158;2024-03-25T00:25:46;53357.28;;;-138.23;81.07
13434;BME280;6789;47.678;9.158;2024-03-25T00:30:37;53317.13;;;-138.23;81.12
13434;BME280;6789;47.678;9.158;2024-03-25T00:35:28;53361.31;;;-138.23;82.54
13434;BME280;6789;47.678;9.158;2024-03-25T00:40:19;53351.25;;;-138.23;81.41
13434;BME280;6789;47.678;9.158;2024-03-25T00:45:10;53341.22;;;-138.23;82.36
13434;BME280;6789;47.678;9.158;2024-03-25T00:50:02;53353.25;;;-138.23;81.72
13434;BME280;6789;47.678;9.158;2024-03-25T00:54:53;53341.22;;;-138.23;82.01
13434;BME280;6789;47.678;9.158;2024-03-25T00:59:43;53357.28;;;-138.23;82.80
13434;BME280;6789;47.678;9.158;2024-03-25T01:04:34;53313.09;;;-138.23;82.34
13434;BME280;6789;47.678;9.158;2024-03-25T01:09:25;53339.22;;;-138.23;82.06
13434;BME280;6789;47.678;9.158;2024-03-25T01:14:16;53309.09;;;-138.23;81.01
13434;BME280;6789;47.678;9.158;2024-03-25T01:19:07;53357.28;;;-138.23;81.01
13434;BME280;6789;47.678;9.158;2024-03-25T01:23:58;53333.19;;;-138.23;80.85
13434;BME280;6789;47.678;9.158;2024-03-25T01:28:49;53351.25;;;-138.23;81.08
13434;BME280;6789;47.678;9.158;2024-03-25T01:33:40;53375.34;;;-138.23;80.99
13434;BME280;6789;47.678;9.158;2024-03-25T01:38:31;53373.34;;;-138.23;81.55
13434;BME280;6789;47.678;9.158;2024-03-25T01:43:21;53369.34;;;-138.23;80.74
13434;BME280;6789;47.678;9.158;2024-03-25T01:48:12;53369.34;;;-138.23;79.97
13434;BME280;6789;47.678;9.158;2024-03-25T01:53:04;53351.25;;;-138.23;81.73
13434;BME280;6789;47.678;9.158;2024-03-25T01:57:55;53353.25;;;-138.23;82.34
13434;BME280;6789;47.678;9.158;2024-03-25T02:02:47;53309.09;;;-138.23;81.79
13434;BME280;6789;47.678;9.158;2024-03-25T02:07:38;53361.31;;;-138.23;82.14
13434;BME280;6789;47.678;9.158;2024-03-25T02:12:31;53349.25;;;-138.23;81.72
13434;BME280;6789;47.678;9.158;2024-03-25T02:17:22;53359.28;;;-138.23;81.76
13434;BME280;6789;47.678;9.158;2024-03-25T02:22:12;53377.38;;;-138.23;81.35
13434;BME280;6789;47.678;9.158;2024-03-25T02:27:03;53379.38;;;-138.23;81.83
13434;BME280;6789;47.678;9.158;2024-03-25T02:31:55;53341.22;;;-138.23;81.94
13434;BME280;6789;47.678;9.158;2024-03-25T02:36:45;53375.34;;;-138.23;81.75
13434;BME280;6789;47.678;9.158;2024-03-25T02:41:36;53369.34;;;-138.23;82.14
13434;BME280;6789;47.678;9.158;2024-03-25T02:46:27;53353.25;;;-138.23;82.04
13434;BME280;6789;47.678;9.158;2024-03-25T02:51:18;53367.31;;;-138.23;82.43
13434;BME280;6789;47.678;9.158;2024-03-25T02:56:09;53389.41;;;-138.23;82.80
13434;BME280;6789;47.678;9.158;2024-03-25T03:01:00;53377.38;;;-138.23;82.91
13434;BME280;6789;47.678;9.158;2024-03-25T03:05:51;53357.28;;;-138.23;82.81
13434;BME280;6789;47.678;9.158;2024-03-25T03:10:41;53357.28;;;-138.23;83.25
13434;BME280;6789;47.678;9.158;2024-03-25T03:15:32;53371.34;;;-138.23;83.27
13434;BME280;6789;47.678;9.158;2024-03-25T03:20:23;53351.25;;;-138.23;83.21
13434;BME280;6789;47.678;9.158;2024-03-25T03:25:14;53357.28;;;-138.23;83.45
13434;BME280;6789;47.678;9.158;2024-03-25T03:30:07;53321.13;;;-138.23;84.20
13434;BME280;6789;47.678;9.158;2024-03-25T03:34:58;53341.22;;;-138.23;84.00
13434;BME280;6789;47.678;9.158;2024-03-25T03:39:49;53369.34;;;-138.23;84.94
13434;BME280;6789;47.678;9.158;2024-03-25T03:44:40;53369.34;;;-138.23;85.98
13434;BME280;6789;47.678;9.158;2024-03-25T03:49:30;53345.22;;;-138.23;85.84
13434;BME280;6789;47.678;9.158;2024-03-25T03:54:21;53377.38;;;-138.23;85.96
13434;BME280;6789;47.678;9.158;2024-03-25T03:59:12;53345.22;;;-138.23;86.68
13434;BME280;6789;47.678;9.158;2024-03-25T04:04:03;53329.16;;;-138.23;86.50
13434;BME280;6789;47.678;9.158;2024-03-25T04:08:55;53361.31;;;-138.23;86.31
13434;BME280;6789;47.678;9.158;2024-03-25T04:13:47;53381.38;;;-138.23;87.07
13434;BME280;6789;47.678;9.158;2024-03-25T04:18:38;53365.31;;;-138.23;86.73
13434;BME280;6789;47.678;9.158;2024-03-25T04:23:29;53393.44;;;-138.23;86.75
13434;BME280;6789;47.678;9.158;2024-03-25T04:28:20;53365.31;;;-138.23;86.58
13434;BME280;6789;47.678;9.158;2024-03-25T04:33:13;53389.41;;;-138.23;86.92
13434;BME280;6789;47.678;9.158;2024-03-25T04:38:04;53367.31;;;-138.23;87.55
13434;BME280;6789;47.678;9.158;2024-03-25T04:42:54;53365.31;;;-138.23;88.18
13434;BME280;6789;47.678;9.158;2024-03-25T04:47:45;53381.38;;;-138.23;88.13
13434;BME280;6789;47.678;9.158;2024-03-25T04:52:36;53381.38;;;-138.23;88.24
13434;BME280;6789;47.678;9.158;2024-03-25T04:57:32;53393.44;;;-138.23;87.75
13434;BME280;6789;47.678;9.158;2024-03-25T05:02:23;53407.50;;;-138.23;87.71
13434;BME280;6789;47.678;9.158;2024-03-25T05:07:13;53369.34;;;-138.23;87.99
13434;BME280;6789;47.678;9.158;2024-03-25T05:12:05;53351.25;;;-138.23;87.76
13434;BME280;6789;47.678;9.158;2024-03-25T05:16:56;53337.19;;;-138.23;87.35
13434;BME280;6789;47.678;9.158;2024-03-25T05:21:47;53367.31;;;-138.23;86.65
13434;BME280;6789;47.678;9.158;2024-03-25T05:26:38;53351.25;;;-138.23;85.98
13434;BME280;6789;47.678;9.158;2024-03-25T05:31:29;53395.44;;;-138.23;86.19
13434;BME280;6789;47.678;9.158;2024-03-25T05:36:19;53383.38;;;-138.23;86.10
13434;BME280;6789;47.678;9.158;2024-03-25T05:41:11;53385.41;;;-138.23;85.73
13434;BME280;6789;47.678;9.158;2024-03-25T05:46:02;53377.38;;;-138.23;85.56
13434;BME280;6789;47.678;9.158;2024-03-25T05:51:11;53359.28;;;-138.23;85.30
13434;BME280;6789;47.678;9.158;2024-03-25T05:56:03;53401.47;;;-138.23;84.87
13434;BME280;6789;47.678;9.158;2024-03-25T06:00:54;53379.38;;;-138.23;84.26
13434;BME280;6789;47.678;9.158;2024-03-25T06:05:45;53363.31;;;-138.23;83.75
13434;BME280;6789;47.678;9.158;2024-03-25T06:10:37;53361.31;;;-138.23;82.95
13434;BME280;6789;47.678;9.158;2024-03-25T06:15:28;53369.34;;;-138.23;82.35
13434;BME280;6789;47.678;9.158;2024-03-25T06:20:19;53371.34;;;-138.23;82.23
13434;BME280;6789;47.678;9.158;2024-03-25T06:25:10;53377.38;;;-138.23;81.31
13434;BME280;6789;47.678;9.158;2024-03-25T06:30:01;53325.16;;;-138.23;79.48
13434;BME280;6789;47.678;9.158;2024-03-25T06:35:11;53369.34;;;-138.23;78.87
13434;BME280;6789;47.678;9.158;2024-03-25T06:40:03;53341.22;;;-138.23;78.21
13434;BME280;6789;47.678;9.158;2024-03-25T06:44:55;53357.28;;;-138.23;77.05
13434;BME280;6789;47.678;9.158;2024-03-25T06:49:46;53345.22;;;-138.23;76.80
13434;BME280;6789;47.678;9.158;2024-03-25T06:54:37;53367.31;;;-138.23;76.22
13434;BME280;6789;47.678;9.158;2024-03-25T06:59:28;53315.13;;;-138.23;73.72
13434;BME280;6789;47.678;9.158;2024-03-25T07:04:18;53341.22;;;-138.23;72.86
13434;BME280;6789;47.678;9.158;2024-03-25T07:09:09;53321.13;;;-138.23;73.01
13434;BME280;6789;47.678;9.158;2024-03-25T07:14:02;53385.41;;;-138.23;71.74
13434;BME280;6789;47.678;9.158;2024-03-25T07:18:55;53319.13;;;-138.23;71.52
13434;BME280;6789;47.678;9.158;2024-03-25T07:23:47;53319.13;;;-138.23;71.23
13434;BME280;6789;47.678;9.158;2024-03-25T07:28:38;53341.22;;;-138.23;70.87
13434;BME280;6789;47.678;9.158;2024-03-25T07:33:29;53317.13;;;-138.23;70.38
13434;BME280;6789;47.678;9.158;2024-03-25T07:38:20;53335.19;;;-138.23;69.23
13434;BME280;6789;47.678;9.158;2024-03-25T07:43:11;53331.19;;;-138.23;69.07
13434;BME280;6789;47.678;9.158;2024-03-25T07:48:02;53301.06;;;-138.23;68.07
13434;BME280;6789;47.678;9.158;2024-03-25T07:52:54;53307.09;;;-138.23;68.21
13434;BME280;6789;47.678;9.158;2024-03-25T07:58:00;53299.06;;;-138.23;64.76
13434;BME280;6789;47.678;9.158;2024-03-25T08:02:52;53287.00;;;-138.23;62.37
13434;BME280;6789;47.678;9.158;2024-03-25T08:13:05;53262.91;;;-138.23;60.16
13434;BME280;6789;47.678;9.158;2024-03-25T08:17:56;53272.94;;;-138.23;58.01
13434;BME280;6789;47.678;9.158;2024-03-25T08:22:49;53313.09;;;-138.23;59.59
13434;BME280;6789;47.678;9.158;2024-03-25T08:27:39;53303.06;;;-138.23;58.46
13434;BME280;6789;47.678;9.158;2024-03-25T08:32:30;53254.88;;;-138.23;56.54
13434;BME280;6789;47.678;9.158;2024-03-25T08:37:23;53272.94;;;-138.23;55.96
13434;BME280;6789;47.678;9.158;2024-03-25T08:42:14;53208.69;;;-138.23;55.24
13434;BME280;6789;47.678;9.158;2024-03-25T08:47:05;53311.09;;;-138.23;57.46
13434;BME280;6789;47.678;9.158;2024-03-25T08:51:55;53260.91;;;-138.23;58.45
13434;BME280;6789;47.678;9.158;2024-03-25T08:56:46;53268.94;;;-138.23;58.00
13434;BME280;6789;47.678;9.158;2024-03-25T09:01:37;53256.88;;;-138.23;57.53
13434;BME280;6789;47.678;9.158;2024-03-25T09:06:28;53268.94;;;-138.23;58.33
13434;BME280;6789;47.678;9.158;2024-03-25T09:11:19;53293.03;;;-138.23;59.55
13434;BME280;6789;47.678;9.158;2024-03-25T09:16:10;53295.03;;;-138.23;59.92
13434;BME280;6789;47.678;9.158;2024-03-25T09:21:01;53272.94;;;-138.23;58.45
13434;BME280;6789;47.678;9.158;2024-03-25T09:25:53;53246.84;;;-138.23;56.85
13434;BME280;6789;47.678;9.158;2024-03-25T09:30:48;53272.94;;;-138.23;56.60
13434;BME280;6789;47.678;9.158;2024-03-25T09:35:39;53274.94;;;-138.23;55.15
13434;BME280;6789;47.678;9.158;2024-03-25T09:40:45;53278.97;;;-138.23;54.91
13434;BME280;6789;47.678;9.158;2024-03-25T09:45:38;53272.94;;;-138.23;54.74
13434;BME280;6789;47.678;9.158;2024-03-25T09:50:31;53254.88;;;-138.23;54.36
13434;BME280;6789;47.678;9.158;2024-03-25T09:55:22;53268.94;;;-138.23;54.45
13434;BME280;6789;47.678;9.158;2024-03-25T10:00:13;53250.84;;;-138.23;55.04
13434;BME280;6789;47.678;9.158;2024-03-25T10:05:08;53285.00;;;-138.23;55.69
13434;BME280;6789;47.678;9.158;2024-03-25T10:09:59;53266.91;;;-138.23;54.32
13434;BME280;6789;47.678;9.158;2024-03-25T10:14:50;53224.75;;;-138.23;52.41
13434;BME280;6789;47.678;9.158;2024-03-25T10:19:41;53240.81;;;-138.23;51.94
13434;BME280;6789;47.678;9.158;2024-03-25T10:24:44;53240.81;;;-138.23;52.75
13434;BME280;6789;47.678;9.158;2024-03-25T10:29:35;53216.72;;;-138.23;52.05
13434;BME280;6789;47.678;9.158;2024-03-25T10:34:26;53266.91;;;-138.23;52.27
13434;BME280;6789;47.678;9.158;2024-03-25T10:39:18;53240.81;;;-138.23;53.10
13434;BME280;6789;47.678;9.158;2024-03-25T10:44:11;53244.84;;;-138.23;50.92
13434;BME280;6789;47.678;9.158;2024-03-25T10:54:30;53283.00;;;-138.23;51.04
13434;BME280;6789;47.678;9.158;2024-03-25T10:59:24;53240.81;;;-138.23;50.98
13434;BME280;6789;47.678;9.158;2024-03-25T11:04:15;53208.69;;;-138.23;50.97
13434;BME280;6789;47.678;9.158;2024-03-25T11:09:26;53238.81;;;-138.23;51.26
13434;BME280;6789;47.678;9.158;2024-03-25T11:14:17;53202.66;;;-138.23;49.36
13434;BME280;6789;47.678;9.158;2024-03-25T11:19:11;53236.81;;;-138.23;47.56
13434;BME280;6789;47.678;9.158;2024-03-25T11:24:08;53244.84;;;-138.23;48.62
13434;BME280;6789;47.678;9.158;2024-03-25T11:28:59;53220.75;;;-138.23;42.07
13434;BME280;6789;47.678;9.158;2024-03-25T11:33:50;53230.78;;;-138.23;44.31
13434;BME280;6789;47.678;9.158;2024-03-25T11:38:41;53216.72;;;-138.23;42.50
13434;BME280;6789;47.678;9.158;2024-03-25T11:43:34;53200.66;;;-138.23;45.76
13434;BME280;6789;47.678;9.158;2024-03-25T11:48:25;53236.81;;;-138.23;44.58
13434;BME280;6789;47.678;9.158;2024-03-25T11:53:16;53204.66;;;-138.23;43.41
13434;BME280;6789;47.678;9.158;2024-03-25T11:58:07;53228.78;;;-138.23;44.07
13434;BME280;6789;47.678;9.158;2024-03-25T12:03:00;53192.63;;;-138.23;43.94
13434;BME280;6789;47.678;9.158;2024-03-25T12:08:10;53196.63;;;-138.23;41.26
13434;BME280;6789;47.678;9.158;2024-03-25T12:13:04;53206.69;;;-138.23;40.03
13434;BME280;6789;47.678;9.158;2024-03-25T12:17:55;53210.69;;;-138.23;41.44
13434;BME280;6789;47.678;9.158;2024-03-25T12:22:48;53194.63;;;-138.23;42.35
13434;BME280;6789;47.678;9.158;2024-03-25T12:27:40;53186.59;;;-138.23;41.13
13434;BME280;6789;47.678;9.158;2024-03-25T12:37:28;53186.59;;;-138.23;41.23
13434;BME280;6789;47.678;9.158;2024-03-25T12:42:19;53152.47;;;-138.23;39.69
13434;BME280;6789;47.678;9.158;2024-03-25T12:47:10;53182.59;;;-138.23;40.00
13434;BME280;6789;47.678;9.158;2024-03-25T12:57:02;53164.50;;;-138.23;39.09
13434;BME280;6789;47.678;9.158;2024-03-25T13:01:53;53184.59;;;-138.23;38.63
13434;BME280;6789;47.678;9.158;2024-03-25T13:06:59;53194.63;;;-138.23;37.46
13434;BME280;6789;47.678;9.158;2024-03-25T13:11:50;53168.53;;;-138.23;38.09
13434;BME280;6789;47.678;9.158;2024-03-25T13:16:41;53212.72;;;-138.23;38.11
13434;BME280;6789;47.678;9.158;2024-03-25T13:21:37;53168.53;;;-138.23;37.60
13434;BME280;6789;47.678;9.158;2024-03-25T13:26:57;53180.56;;;-138.23;37.51
13434;BME280;6789;47.678;9.158;2024-03-25T13:31:48;53184.59;;;-138.23;36.85
13434;BME280;6789;47.678;9.158;2024-03-25T13:36:39;53164.50;;;-138.23;37.13
13434;BME280;6789;47.678;9.158;2024-03-25T13:41:29;53148.44;;;-138.23;36.32
13434;BME280;6789;47.678;9.158;2024-03-25T13:46:20;53178.56;;;-138.23;36.16
13434;BME280;6789;47.678;9.158;2024-03-25T13:51:11;53178.56;;;-138.23;36.74
13434;BME280;6789;47.678;9.158;2024-03-25T13:56:02;53184.59;;;-138.23;36.97
13434;BME280;6789;47.678;9.158;2024-03-25T14:00:53;53160.50;;;-138.23;36.49
13434;BME280;6789;47.678;9.158;2024-03-25T14:05:45;53150.47;;;-138.23;35.86
13434;BME280;6789;47.678;9.158;2024-03-25T14:10:36;53164.50;;;-138.23;36.24
13434;BME280;6789;47.678;9.158;2024-03-25T14:15:27;53148.44;;;-138.23;34.60
13434;BME280;6789;47.678;9.158;2024-03-25T14:20:18;53144.44;;;-138.23;34.88
13434;BME280;6789;47.678;9.158;2024-03-25T14:25:09;53176.56;;;-138.23;34.43
13434;BME280;6789;47.678;9.158;2024-03-25T14:30:00;53146.44;;;-138.23;35.40
13434;BME280;6789;47.678;9.158;2024-03-25T14:34:51;53136.41;;;-138.23;34.49
13434;BME280;6789;47.678;9.158;2024-03-25T14:44:49;53110.31;;;-138.23;35.13
13434;BME280;6789;47.678;9.158;2024-03-25T14:49:40;53116.31;;;-138.23;34.51
13434;BME280;6789;47.678;9.158;2024-03-25T14:54:35;53158.50;;;-138.23;34.58
13434;BME280;6789;47.678;9.158;2024-03-25T14:59:27;53140.41;;;-138.23;34.53
13434;BME280;6789;47.678;9.158;2024-03-25T15:04:19;53130.38;;;-138.23;35.38
13434;BME280;6789;47.678;9.158;2024-03-25T15:09:11;53132.38;;;-138.23;35.31
13434;BME280;6789;47.678;9.158;2024-03-25T15:14:02;53152.47;;;-138.23;35.52
13434;BME280;6789;47.678;9.158;2024-03-25T15:18:53;53134.41;;;-138.23;34.78
13434;BME280;6789;47.678;9.158;2024-03-25T15:23:44;53136.41;;;-138.23;33.72
13434;BME280;6789;47.678;9.158;2024-03-25T15:28:35;53144.44;;;-138.23;34.49
13434;BME280;6789;47.678;9.158;2024-03-25T15:33:26;53152.47;;;-138.23;34.33
13434;BME280;6789;47.678;9.158;2024-03-25T15:38:17;53140.41;;;-138.23;34.39
13434;BME280;6789;47.678;9.158;2024-03-25T15:43:08;53148.44;;;-138.23;35.09
13434;BME280;6789;47.678;9.158;2024-03-25T15:47:59;53136.41;;;-138.23;34.73
13434;BME280;6789;47.678;9.158;2024-03-25T15:57:50;53124.34;;;-138.23;34.51
13434;BME280;6789;47.678;9.158;2024-03-25T16:02:42;53144.44;;;-138.23;34.87
13434;BME280;6789;47.678;9.158;2024-03-25T16:07:33;53152.47;;;-138.23;35.01
13434;BME280;6789;47.678;9.158;2024-03-25T16:12:24;53124.34;;;-138.23;34.38
13434;BME280;6789;47.678;9.158;2024-03-25T16:17:15;53184.59;;;-138.23;35.15
13434;BME280;6789;47.678;9.158;2024-03-25T16:22:06;53148.44;;;-138.23;34.97
13434;BME280;6789;47.678;9.158;2024-03-25T16:26:57;53130.38;;;-138.23;35.12
13434;BME280;6789;47.678;9.158;2024-03-25T16:31:48;53156.47;;;-138.23;34.49
13434;BME280;6789;47.678;9.158;2024-03-25T16:36:39;53144.44;;;-138.23;34.54
13434;BME280;6789;47.678;9.158;2024-03-25T16:41:29;53128.38;;;-138.23;34.96
13434;BME280;6789;47.678;9.158;2024-03-25T16:46:20;53180.56;;;-138.23;35.33
13434;BME280;6789;47.678;9.158;2024-03-25T16:51:11;53152.47;;;-138.23;35.45
13434;BME280;6789;47.678;9.158;2024-03-25T16:56:02;53176.56;;;-138.23;35.67
13434;BME280;6789;47.678;9.158;2024-03-25T17:00:54;53184.59;;;-138.23;35.32
13434;BME280;6789;47.678;9.158;2024-03-25T17:05:49;53172.53;;;-138.23;35.28
13434;BME280;6789;47.678;9.158;2024-03-25T17:10:40;53152.47;;;-138.23;35.95
13434;BME280;6789;47.678;9.158;2024-03-25T17:15:32;53138.41;;;-138.23;36.26
13434;BME280;6789;47.678;9.158;2024-03-25T17:20:23;53176.56;;;-138.23;36.92
13434;BME280;6789;47.678;9.158;2024-03-25T17:25:14;53166.53;;;-138.23;36.90
13434;BME280;6789;47.678;9.158;2024-03-25T17:30:05;53136.41;;;-138.23;37.41
13434;BME280;6789;47.678;9.158;2024-03-25T17:34:56;53180.56;;;-138.23;37.80
13434;BME280;6789;47.678;9.158;2024-03-25T17:39:47;53176.56;;;-138.23;37.93
13434;BME280;6789;47.678;9.158;2024-03-25T17:44:39;53174.56;;;-138.23;38.51
13434;BME280;6789;47.678;9.158;2024-03-25T17:49:30;53180.56;;;-138.23;38.65
13434;BME280;6789;47.678;9.158;2024-03-25T17:54:21;53154.47;;;-138.23;38.77
13434;BME280;6789;47.678;9.158;2024-03-25T17:59:12;53200.66;;;-138.23;38.68
13434;BME280;6789;47.678;9.158;2024-03-25T18:04:03;53164.50;;;-138.23;38.56
13434;BME280;6789;47.678;9.158;2024-03-25T18:08:56;53184.59;;;-138.23;38.73
13434;BME280;6789;47.678;9.158;2024-03-25T18:13:55;53176.56;;;-138.23;39.00
13434;BME280;6789;47.678;9.158;2024-03-25T18:18:48;53160.50;;;-138.23;39.07
13434;BME280;6789;47.678;9.158;2024-03-25T18:23:38;53214.72;;;-138.23;39.47
13434;BME280;6789;47.678;9.158;2024-03-25T18:28:31;53188.59;;;-138.23;39.49
13434;BME280;6789;47.678;9.158;2024-03-25T18:33:21;53184.59;;;-138.23;39.94
13434;BME280;6789;47.678;9.158;2024-03-25T18:38:12;53194.63;;;-138.23;40.14
13434;BME280;6789;47.678;9.158;2024-03-25T18:43:03;53192.63;;;-138.23;40.56
13434;BME280;6789;47.678;9.158;2024-03-25T18:47:54;53218.72;;;-138.23;40.37
13434;BME280;6789;47.678;9.158;2024-03-25T18:52:45;53196.63;;;-138.23;40.26
13434;BME280;6789;47.678;9.158;2024-03-25T18:57:36;53184.59;;;-138.23;40.97
13434;BME280;6789;47.678;9.158;2024-03-25T19:02:27;53202.66;;;-138.23;41.41
13434;BME280;6789;47.678;9.158;2024-03-25T19:07:29;53216.72;;;-138.23;41.63
13434;BME280;6789;47.678;9.158;2024-03-25T19:12:19;53176.56;;;-138.23;42.14
13434;BME280;6789;47.678;9.158;2024-03-25T19:17:10;53196.63;;;-138.23;42.87
13434;BME280;6789;47.678;9.158;2024-03-25T19:22:01;53152.47;;;-138.23;43.00
13434;BME280;6789;47.678;9.158;2024-03-25T19:26:52;53188.59;;;-138.23;43.00
13434;BME280;6789;47.678;9.158;2024-03-25T19:31:43;53202.66;;;-138.23;43.25
13434;BME280;6789;47.678;9.158;2024-03-25T19:36:34;53184.59;;;-138.23;43.70
13434;BME280;6789;47.678;9.158;2024-03-25T19:41:25;53216.72;;;-138.23;44.27
13434;BME280;6789;47.678;9.158;2024-03-25T19:46:15;53224.75;;;-138.23;44.37
13434;BME280;6789;47.678;9.158;2024-03-25T19:51:06;53248.84;;;-138.23;44.96
13434;BME280;6789;47.678;9.158;2024-03-25T19:55:58;53256.88;;;-138.23;44.69
13434;BME280;6789;47.678;9.158;2024-03-25T20:00:50;53204.66;;;-138.23;44.98
13434;BME280;6789;47.678;9.158;2024-03-25T20:05:41;53208.69;;;-138.23;45.33
13434;BME280;6789;47.678;9.158;2024-03-25T20:10:31;53224.75;;;-138.23;45.18
13434;BME280;6789;47.678;9.158;2024-03-25T20:15:22;53240.81;;;-138.23;45.32
13434;BME280;6789;47.678;9.158;2024-03-25T20:20:13;53238.81;;;-138.23;46.00
13434;BME280;6789;47.678;9.158;2024-03-25T20:25:04;53228.78;;;-138.23;46.62
13434;BME280;6789;47.678;9.158;2024-03-25T20:29:55;53212.72;;;-138.23;46.71
13434;BME280;6789;47.678;9.158;2024-03-25T20:34:46;53216.72;;;-138.23;46.61
13434;BME280;6789;47.678;9.158;2024-03-25T20:39:37;53216.72;;;-138.23;47.56
13434;BME280;6789;47.678;9.158;2024-03-25T20:44:28;53254.88;;;-138.23;47.76
13434;BME280;6789;47.678;9.158;2024-03-25T20:49:21;53222.75;;;-138.23;47.87
13434;BME280;6789;47.678;9.158;2024-03-25T20:54:12;53252.88;;;-138.23;48.19
13434;BME280;6789;47.678;9.158;2024-03-25T20:59:03;53208.69;;;-138.23;48.12
13434;BME280;6789;47.678;9.158;2024-03-25T21:03:54;53228.78;;;-138.23;47.44
13434;BME280;6789;47.678;9.158;2024-03-25T21:13:49;53244.84;;;-138.23;48.21
13434;BME280;6789;47.678;9.158;2024-03-25T21:18:39;53228.78;;;-138.23;48.21
13434;BME280;6789;47.678;9.158;2024-03-25T21:23:30;53224.75;;;-138.23;49.18
13434;BME280;6789;47.678;9.158;2024-03-25T21:28:21;53244.84;;;-138.23;49.37
13434;BME280;6789;47.678;9.158;2024-03-25T21:33:12;53264.91;;;-138.23;48.79
13434;BME280;6789;47.678;9.158;2024-03-25T21:38:03;53244.84;;;-138.23;48.39
13434;BME280;6789;47.678;9.158;2024-03-25T21:42:54;53228.78;;;-138.23;48.26
13434;BME280;6789;47.678;9.158;2024-03-25T21:47:45;53224.75;;;-138.23;48.39
13434;BME280;6789;47.678;9.158;2024-03-25T21:52:36;53212.72;;;-138.23;48.67
13434;BME280;6789;47.678;9.158;2024-03-25T21:57:27;53248.84;;;-138.23;48.91
13434;BME280;6789;47.678;9.158;2024-03-25T22:02:18;53236.81;;;-138.23;48.84
13434;BME280;6789;47.678;9.158;2024-03-25T22:07:09;53268.94;;;-138.23;49.02
13434;BME280;6789;47.678;9.158;2024-03-25T22:11:59;53268.94;;;-138.23;48.71
13434;BME280;6789;47.678;9.158;2024-03-25T22:16:50;53264.91;;;-138.23;48.91
13434;BME280;6789;47.678;9.158;2024-03-25T22:21:41;53260.91;;;-138.23;48.74
13434;BME280;6789;47.678;9.158;2024-03-25T22:26:32;53232.78;;;-138.23;48.29
13434;BME280;6789;47.678;9.158;2024-03-25T22:31:23;53260.91;;;-138.23;50.37
13434;BME280;6789;47.678;9.158;2024-03-25T22:36:14;53212.72;;;-138.23;52.05
13434;BME280;6789;47.678;9.158;2024-03-25T22:41:05;53252.88;;;-138.23;54.17
13434;BME280;6789;47.678;9.158;2024-03-25T22:46:01;53270.94;;;-138.23;55.36
13434;BME280;6789;47.678;9.158;2024-03-25T22:51:05;53258.88;;;-138.23;55.89
13434;BME280;6789;47.678;9.158;2024-03-25T23:00:51;53276.97;;;-138.23;59.79
13434;BME280;6789;47.678;9.158;2024-03-25T23:05:42;53317.13;;;-138.23;58.72
13434;BME280;6789;47.678;9.158;2024-03-25T23:11:00;53262.91;;;-138.23;58.22
13434;BME280;6789;47.678;9.158;2024-03-25T23:15:51;53244.84;;;-138.23;58.26
13434;BME280;6789;47.678;9.158;2024-03-25T23:20:46;53268.94;;;-138.23;58.81
13434;BME280;6789;47.678;9.158;2024-03-25T23:25:37;53264.91;;;-138.23;58.23
13434;BME280;6789;47.678;9.158;2024-03-25T23:30:28;53280.97;;;-138.23;59.28
13434;BME280;6789;47.678;9.158;2024-03-25T23:35:19;53264.91;;;-138.23;57.47
13434;BME280;6789;47.678;9.158;2024-03-25T23:40:10;53264.91;;;-138.23;57.36
13434;BME280;6789;47.678;9.158;2024-03-25T23:45:01;53268.94;;;-138.23;57.96
13434;BME280;6789;47.678;9.158;2024-03-25T23:49:54;53260.91;;;-138.23;58.25
13434;BME280;6789;47.678;9.158;2024-03-25T23:54:44;53291.03;;;-138.23;57.39
13434;BME280;6789;47.678;9.158;2024-03-25T23:59:35;53285.00;;;-138.23;58.43
